Terminal Aerodrome Forecast
Issued by NWS Memphis, TN

Home | Current Version | Previous Version | Text Only | Print | Product List | Glossary On
Versions: 1 2 3 4 5 6 7 8 9 10 11 12
000
FTUS44 KMEG 031720
TAFJBR
TAF
KJBR 031720Z 0318/0418 08007KT P6SM VCSH BKN060 OVC100
     FM031900 08008KT P6SM -RA SCT025 OVC050
     FM040000 08008KT 5SM -RA BR SCT009 OVC025
     FM040200 06009KT 5SM -RA BR BKN005 OVC015
     FM041200 07008KT 6SM BR VCSH OVC005=

USA.gov is the U.S. government's official web portal to all federal, state and local government web resources and services.